Main page
METAR-TAF:

METAR-TAF

Airports :

Cherbourg – Maupertus Airport

Cherbourg, France

latitude: 49-39N, longitude: 001-28W, elevation: 138 m

Current weather observation

The report was made 13 minutes ago, at 07:30 UTC
Wind 19 kt from the West/Northwest
Temperature 13°C
Humidity 82%
Pressure 1000 hPa
Visibility 10 km or more
Broken clouds at a height of 1300 ft
Broken clouds at a height of 1800 ft
Overcast at a height of 13000 ft

METAR: LFRC 050730Z AUTO 29019KT 9999 BKN013 BKN018 OVC130 13/10 Q1000

Time: 09:43 (07:43 UTC)


TAF: missing

Weather observations and forecasts of more than 4000 airports (METAR and TAF reports).

The available stations are represented by yellow and red dots on the map.

Hover mouse over dot to see the name of the station.

Then click to see weather observations and forecasts.

To change the map : click on the green buttons with a black cross to zoom in, on the green button with a dash to zoom out, or on the green arrows for adjacent maps.


METAR-TAF: